Sitka, AK (99835)

1:52 AM AKDT on September 27, 2016 (GMT -0800)
Sitka Rocky Gutierrez | | Change Station

Elev 20 ft 57.05 °N, 135.36 °W | Updated 12 minutes ago

Overcast
Overcast
49 °F
Feels Like 49 °F
N
8
Wind Variable Wind from WNW

Today
High -- | Low -- °F
--% Chance of Precip.
Yesterday
High -- | Low -- °F
Precip. -- in
Pressure 30.06 in
Visibility 10.0 miles
Clouds Mostly Cloudy 2900 ft
Overcast 4000 ft
Dew Point 44 °F
Humidity 83%
Rainfall 0.00 in
Snow Depth Not available.
6:58 AM 6:44 PM
Waning Crescent, 12% visible
SPECI PASI 270940Z 30007KT 270V340 10SM BKN029 OVC040 09/07 A3006 RMK AO2 RAB0858E08 P0000 T00940067
Pressure 30.06 in
Visibility 10.0 miles
Clouds Mostly Cloudy 2900 ft
Overcast 4000 ft
Dew Point 44 °F
Humidity 83%
Rainfall 0.00 in
Snow Depth Not available.
6:58 AM 6:44 PM
Waning Crescent, 12% visible
SPECI PASI 270940Z 30007KT 270V340 10SM BKN029 OVC040 09/07 A3006 RMK AO2 RAB0858E08 P0000 T00940067

10-Day Weather Forecast

Almanac

Astronomy

Sep. 27, 2016 Rise Set
Actual Time
Civil Twilight
Nautical Twilight
Astronomical Twilight
Moon
Length of Visible Light
Length of Day
Tomorrow will be .
, % of the Moon is Illuminated

Today's Extremes

State Highs State Lows

Community

WunderPhotos

Upload Photos

1,942,057 photos uploaded!

WunderBlog® & News

Nearby

Air Quality

  Air Quality AQ Index Pollutant
Not available.

Snow Depth

Station Depth Elevation

Earthquake Activity

City Distance Mag. Time & Date
Minimum magnitude displayed is 2.5.

Coastal Water Temperatures

Place Temperature

Stations

Nearby Weather Stations

Station Location Temp. Windchill Dew Point Humidity Wind Precip. Elev Updated Type
                   

Watches & Warnings

There are currently no watches in effect.